Time,TemperatureF,DewpointF,PressureIn,WindDirection,WindDirectionDegrees,WindSpeedMPH,WindSpeedGustMPH,Humidity,HourlyPrecipIn,Conditions,Clouds,dailyrainin,SoftwareType,DateUTC
2013-01-31 07:02:00,26.0,20.0,-100.00,North,0,4.0,8.0,78,-99.99,,,-99.99,,2013-01-31 14:02:00,
2013-01-31 07:11:00,26.0,20.0,-100.00,SSW,195,5.0,11.0,78,-99.99,,,-99.99,,2013-01-31 14:11:00,
2013-01-31 07:21:00,26.0,20.0,-100.00,SSW,205,2.0,6.0,79,-99.99,,,-99.99,,2013-01-31 14:21:00,
2013-01-31 07:31:00,26.0,20.0,-100.00,South,170,4.0,9.0,79,-99.99,,,-99.99,,2013-01-31 14:31:00,
2013-01-31 07:42:00,26.0,20.0,-100.00,NNE,25,2.0,9.0,79,-99.99,,,-99.99,,2013-01-31 14:42:00,
2013-01-31 07:52:00,26.0,20.0,-100.00,South,185,1.0,7.0,79,-99.99,,,-99.99,,2013-01-31 14:52:00,
2013-01-31 08:02:00,26.0,21.0,-100.00,SE,140,2.0,6.0,78,-99.99,,,-99.99,,2013-01-31 15:02:00,
2013-01-31 08:11:00,27.0,21.0,-100.00,SE,125,2.0,15.0,77,-99.99,,,-99.99,,2013-01-31 15:11:00,
2013-01-31 08:22:00,27.0,21.0,-100.00,South,185,7.0,17.0,76,-99.99,,,-99.99,,2013-01-31 15:22:00,
2013-01-31 08:32:00,27.0,21.0,-100.00,South,185,6.0,16.0,75,-99.99,,,-99.99,,2013-01-31 15:32:00,
2013-01-31 08:42:00,27.0,21.0,-100.00,South,185,6.0,16.0,75,-99.99,,,-99.99,,2013-01-31 15:42:00,
2013-01-31 08:51:00,27.0,21.0,-100.00,South,185,6.0,16.0,75,-99.99,,,-99.99,,2013-01-31 15:51:00,
2013-01-31 09:03:00,27.0,21.0,-100.00,South,185,6.0,16.0,75,-99.99,,,-99.99,,2013-01-31 16:03:00,
2013-01-31 09:42:00,34.0,21.0,-100.00,SE,135,4.0,11.0,58,-99.99,,,-99.99,,2013-01-31 16:42:00,
2013-01-31 09:52:00,34.0,21.0,-100.00,East,95,2.0,14.0,57,-99.99,,,-99.99,,2013-01-31 16:52:00,
2013-01-31 10:02:00,35.0,21.0,-100.00,SE,130,2.0,8.0,56,-99.99,,,-99.99,,2013-01-31 17:02:00,
2013-01-31 10:12:00,34.0,20.0,-100.00,SE,125,2.0,9.0,55,-99.99,,,-99.99,,2013-01-31 17:12:00,
2013-01-31 10:22:00,36.0,20.0,-100.00,SSW,195,6.0,13.0,53,-99.99,,,-99.99,,2013-01-31 17:22:00,
2013-01-31 10:31:00,37.0,21.0,-100.00,SSW,205,5.0,14.0,51,-99.99,,,-99.99,,2013-01-31 17:31:00,
2013-01-31 10:43:00,37.0,20.0,-100.00,SW,225,6.0,17.0,49,-99.99,,,-99.99,,2013-01-31 17:43:00,
2013-01-31 10:53:00,38.0,20.0,-100.00,SSW,210,9.0,19.0,47,-99.99,,,-99.99,,2013-01-31 17:53:00,
2013-01-31 11:02:00,38.0,20.0,-100.00,SW,220,6.0,17.0,47,-99.99,,,-99.99,,2013-01-31 18:02:00,
2013-01-31 11:12:00,38.0,19.0,-100.00,South,180,6.0,16.0,46,-99.99,,,-99.99,,2013-01-31 18:12:00,
2013-01-31 11:21:00,37.0,19.0,-100.00,WSW,245,7.0,18.0,47,-99.99,,,-99.99,,2013-01-31 18:21:00,
2013-01-31 11:32:00,38.0,20.0,-100.00,SSW,205,9.0,19.0,46,-99.99,,,-99.99,,2013-01-31 18:32:00,
2013-01-31 11:42:00,37.0,19.0,-100.00,SW,225,9.0,21.0,46,-99.99,,,-99.99,,2013-01-31 18:42:00,
2013-01-31 11:52:00,38.0,19.0,-100.00,SW,225,12.0,19.0,47,-99.99,,,-99.99,,2013-01-31 18:52:00,
2013-01-31 12:02:00,38.0,20.0,-100.00,SSW,210,11.0,21.0,46,-99.99,,,-99.99,,2013-01-31 19:02:00,
2013-01-31 12:11:00,37.0,19.0,-100.00,SW,220,9.0,18.0,46,-99.99,,,-99.99,,2013-01-31 19:11:00,
2013-01-31 12:21:00,36.0,19.0,-100.00,SW,215,9.0,17.0,48,-99.99,,,-99.99,,2013-01-31 19:21:00,
2013-01-31 12:32:00,37.0,19.0,-100.00,SW,215,7.0,17.0,47,-99.99,,,-99.99,,2013-01-31 19:32:00,
2013-01-31 12:42:00,38.0,20.0,-100.00,WSW,240,6.0,13.0,46,-99.99,,,-99.99,,2013-01-31 19:42:00,
2013-01-31 12:51:00,38.0,20.0,-100.00,SW,225,6.0,14.0,45,-99.99,,,-99.99,,2013-01-31 19:51:00,
2013-01-31 13:02:00,38.0,19.0,-100.00,WSW,245,2.0,10.0,46,-99.99,,,-99.99,,2013-01-31 20:02:00,
2013-01-31 13:11:00,38.0,19.0,-100.00,South,185,1.0,7.0,45,-99.99,,,-99.99,,2013-01-31 20:11:00,
2013-01-31 13:21:00,38.0,19.0,-100.00,South,170,2.0,9.0,44,-99.99,,,-99.99,,2013-01-31 20:21:00,
2013-01-31 13:31:00,39.0,19.0,-100.00,NNE,25,5.0,14.0,44,-99.99,,,-99.99,,2013-01-31 20:31:00,
2013-01-31 13:41:00,39.0,19.0,-100.00,SW,215,4.0,12.0,43,-99.99,,,-99.99,,2013-01-31 20:41:00,
2013-01-31 13:52:00,41.0,19.0,-100.00,SSW,210,7.0,15.0,41,-99.99,,,-99.99,,2013-01-31 20:52:00,
2013-01-31 14:02:00,41.0,19.0,-100.00,SSW,210,7.0,15.0,41,-99.99,,,-99.99,,2013-01-31 21:02:00,
2013-01-31 14:11:00,41.0,19.0,-100.00,South,185,5.0,12.0,40,-99.99,,,-99.99,,2013-01-31 21:11:00,
2013-01-31 14:21:00,42.0,20.0,-100.00,SW,230,6.0,12.0,40,-99.99,,,-99.99,,2013-01-31 21:21:00,
2013-01-31 14:31:00,42.0,19.0,-100.00,SW,220,3.0,8.0,39,-99.99,,,-99.99,,2013-01-31 21:31:00,
2013-01-31 14:42:00,42.0,19.0,-100.00,SW,225,4.0,7.0,38,-99.99,,,-99.99,,2013-01-31 21:42:00,
2013-01-31 14:52:00,43.0,19.0,-100.00,SW,220,2.0,8.0,38,-99.99,,,-99.99,,2013-01-31 21:52:00,
2013-01-31 15:02:00,43.0,19.0,-100.00,SW,225,4.0,9.0,38,-99.99,,,-99.99,,2013-01-31 22:02:00,
2013-01-31 15:11:00,44.0,20.0,-100.00,SW,220,2.0,9.0,37,-99.99,,,-99.99,,2013-01-31 22:11:00,
2013-01-31 15:22:00,44.0,19.0,-100.00,SSW,200,1.0,11.0,36,-99.99,,,-99.99,,2013-01-31 22:22:00,
2013-01-31 15:32:00,44.0,19.0,-100.00,SW,215,4.0,8.0,36,-99.99,,,-99.99,,2013-01-31 22:32:00,
2013-01-31 15:42:00,41.0,17.0,-100.00,SSE,165,4.0,12.0,37,-99.99,,,-99.99,,2013-01-31 22:42:00,
2013-01-31 15:51:00,40.0,17.0,-100.00,SSE,155,4.0,9.0,38,-99.99,,,-99.99,,2013-01-31 22:51:00,
2013-01-31 16:02:00,40.0,18.0,-100.00,WSW,245,1.0,9.0,39,-99.99,,,-99.99,,2013-01-31 23:02:00,
2013-01-31 16:12:00,40.0,17.0,-100.00,South,190,2.0,6.0,40,-99.99,,,-99.99,,2013-01-31 23:12:00,
2013-01-31 16:21:00,39.0,18.0,-100.00,South,170,1.0,4.0,40,-99.99,,,-99.99,,2013-01-31 23:21:00,
2013-01-31 16:31:00,39.0,18.0,-100.00,ESE,120,1.0,6.0,41,-99.99,,,-99.99,,2013-01-31 23:31:00,
2013-01-31 16:41:00,38.0,18.0,-100.00,SE,130,1.0,6.0,42,-99.99,,,-99.99,,2013-01-31 23:41:00,
2013-01-31 16:52:00,38.0,18.0,-100.00,SW,215,1.0,3.0,43,-99.99,,,-99.99,,2013-01-31 23:52:00,
2013-01-31 17:01:00,37.0,18.0,-100.00,SE,145,1.0,4.0,46,-99.99,,,-99.99,,2013-02-01 00:01:00,
2013-01-31 17:11:00,36.0,18.0,-100.00,SSW,200,6.0,10.0,46,-99.99,,,-99.99,,2013-02-01 00:11:00,
2013-01-31 17:21:00,35.0,18.0,-100.00,SW,225,1.0,7.0,47,-99.99,,,-99.99,,2013-02-01 00:21:00,
2013-01-31 17:31:00,35.0,19.0,-100.00,South,180,0.0,5.0,51,-99.99,,,-99.99,,2013-02-01 00:31:00,
2013-01-31 17:42:00,35.0,19.0,-100.00,South,180,0.0,5.0,51,-99.99,,,-99.99,,2013-02-01 00:42:00,
2013-01-31 17:51:00,34.0,19.0,-100.00,North,350,0.0,4.0,54,-99.99,,,-99.99,,2013-02-01 00:51:00,
2013-01-31 18:01:00,33.0,19.0,-100.00,North,355,1.0,2.0,56,-99.99,,,-99.99,,2013-02-01 01:01:00,
2013-01-31 18:11:00,33.0,20.0,-100.00,SSE,165,1.0,3.0,59,-99.99,,,-99.99,,2013-02-01 01:11:00,
2013-01-31 18:21:00,32.0,20.0,-100.00,West,275,0.0,2.0,62,-99.99,,,-99.99,,2013-02-01 01:21:00,
2013-01-31 18:31:00,31.0,21.0,-100.00,NE,40,0.0,2.0,65,-99.99,,,-99.99,,2013-02-01 01:31:00,
2013-01-31 18:41:00,31.0,22.0,-100.00,East,90,0.0,2.0,67,-99.99,,,-99.99,,2013-02-01 01:41:00,
2013-01-31 18:51:00,31.0,22.0,-100.00,East,95,2.0,5.0,68,-99.99,,,-99.99,,2013-02-01 01:51:00,
2013-01-31 19:01:00,31.0,22.0,-100.00,NNE,20,1.0,3.0,69,-99.99,,,-99.99,,2013-02-01 02:01:00,
2013-01-31 19:11:00,31.0,22.0,-100.00,NE,55,1.0,4.0,69,-99.99,,,-99.99,,2013-02-01 02:11:00,
2013-01-31 19:21:00,31.0,22.0,-100.00,North,0,2.0,4.0,69,-99.99,,,-99.99,,2013-02-01 02:21:00,
2013-01-31 19:31:00,31.0,22.0,-100.00,West,265,3.0,6.0,68,-99.99,,,-99.99,,2013-02-01 02:31:00,
2013-01-31 19:41:00,31.0,22.0,-100.00,SW,235,1.0,4.0,67,-99.99,,,-99.99,,2013-02-01 02:41:00,
2013-01-31 19:52:00,30.0,22.0,-100.00,ESE,115,0.0,4.0,69,-99.99,,,-99.99,,2013-02-01 02:52:00,
2013-01-31 20:01:00,30.0,22.0,-100.00,East,95,0.0,1.0,71,-99.99,,,-99.99,,2013-02-01 03:01:00,
2013-01-31 20:11:00,29.0,22.0,-100.00,WNW,295,1.0,2.0,73,-99.99,,,-99.99,,2013-02-01 03:11:00,
2013-01-31 20:21:00,29.0,22.0,-100.00,WSW,250,1.0,4.0,75,-99.99,,,-99.99,,2013-02-01 03:21:00,
2013-01-31 20:32:00,29.0,22.0,-100.00,WSW,250,2.0,3.0,76,-99.99,,,-99.99,,2013-02-01 03:32:00,
2013-01-31 20:41:00,29.0,22.0,-100.00,West,275,0.0,2.0,77,-99.99,,,-99.99,,2013-02-01 03:41:00,
2013-01-31 20:51:00,28.0,23.0,-100.00,SW,230,1.0,2.0,79,-99.99,,,-99.99,,2013-02-01 03:51:00,
2013-01-31 21:02:00,28.0,23.0,-100.00,SW,230,1.0,2.0,79,-99.99,,,-99.99,,2013-02-01 04:02:00,
2013-01-31 21:11:00,28.0,23.0,-100.00,SSW,195,0.0,2.0,80,-99.99,,,-99.99,,2013-02-01 04:11:00,
2013-01-31 21:21:00,28.0,23.0,-100.00,SSW,195,0.0,2.0,80,-99.99,,,-99.99,,2013-02-01 04:21:00,
2013-01-31 21:31:00,28.0,23.0,-100.00,SSW,195,0.0,2.0,80,-99.99,,,-99.99,,2013-02-01 04:31:00,
2013-01-31 21:41:00,28.0,23.0,-100.00,SSW,195,0.0,2.0,80,-99.99,,,-99.99,,2013-02-01 04:41:00,
2013-01-31 22:11:00,29.0,24.0,-100.00,NE,40,1.0,2.0,82,-99.99,,,-99.99,,2013-02-01 05:11:00,
2013-01-31 22:22:00,29.0,25.0,-100.00,NNE,25,0.0,2.0,83,-99.99,,,-99.99,,2013-02-01 05:22:00,
2013-01-31 22:31:00,29.0,25.0,-100.00,SW,220,0.0,2.0,83,-99.99,,,-99.99,,2013-02-01 05:31:00,
2013-01-31 22:41:00,29.0,25.0,-100.00,SE,135,0.0,1.0,82,-99.99,,,-99.99,,2013-02-01 05:41:00,
2013-01-31 22:52:00,29.0,25.0,-100.00,NNW,345,0.0,1.0,83,-99.99,,,-99.99,,2013-02-01 05:52:00,
2013-01-31 23:02:00,29.0,25.0,-100.00,NNW,345,0.0,1.0,83,-99.99,,,-99.99,,2013-02-01 06:02:00,
2013-01-31 23:11:00,29.0,25.0,-100.00,NNW,345,0.0,0.0,83,-99.99,,,-99.99,,2013-02-01 06:11:00,
2013-01-31 23:21:00,29.0,25.0,-100.00,ESE,110,0.0,2.0,84,-99.99,,,-99.99,,2013-02-01 06:21:00,
2013-01-31 23:31:00,29.0,25.0,-100.00,ESE,110,0.0,1.0,84,-99.99,,,-99.99,,2013-02-01 06:31:00,
2013-01-31 23:41:00,29.0,26.0,-100.00,ESE,110,0.0,1.0,85,-99.99,,,-99.99,,2013-02-01 06:41:00,
2013-01-31 23:52:00,29.0,26.0,-100.00,WSW,250,0.0,2.0,85,-99.99,,,-99.99,,2013-02-01 06:52:00,